Time;durP1;ratioP1;P1;durP2;ratioP2;P2;SDS_P1;SDS_P2;PMS_P1;PMS_P2;Temp;Humidity;BMP_temperature;BMP_pressure;BME280_temperature;BME280_humidity;BME280_pressure;Samples;Min_cycle;Max_cycle;Signal;HPM_P1;HPM_P2
2021/12/05 00:19:06;;;;;;;5.57;1.92;;;6.30;99.90;;;;;;5034167;28;20063;-54
2021/12/05 00:21:57;;;;;;;4.55;2.42;;;6.30;99.90;;;;;;5033813;28;20057;-53
2021/12/05 00:24:26;;;;;;;10.95;1.92;;;6.30;99.90;;;;;;5033675;28;20037;-53
2021/12/05 00:27:00;;;;;;;3.05;1.10;;;6.30;99.90;;;;;;5033429;28;20032;-54
2021/12/05 00:29:44;;;;;;;4.18;1.30;;;6.30;99.90;;;;;;5032178;28;20198;-53
2021/12/05 00:32:42;;;;;;;7.15;2.22;;;6.30;99.90;;;;;;5032984;28;20017;-55
2021/12/05 00:51:09;;;;;;;5.93;1.65;;;6.50;99.90;;;;;;5033531;28;20283;-50
2021/12/05 00:59:12;;;;;;;1.70;1.00;;;6.50;99.90;;;;;;5033428;28;20029;-49
2021/12/05 01:04:26;;;;;;;3.58;1.52;;;6.30;99.90;;;;;;5033070;28;20030;-52
2021/12/05 01:07:35;;;;;;;2.63;1.25;;;6.30;99.90;;;;;;5032979;28;20032;-50
2021/12/05 01:17:28;;;;;;;5.47;1.65;;;6.40;99.90;;;;;;5036102;28;20013;-54
2021/12/05 01:19:55;;;;;;;9.02;1.80;;;6.30;99.90;;;;;;5036605;28;20025;-55
2021/12/05 01:22:22;;;;;;;7.10;1.40;;;6.30;99.90;;;;;;5035430;28;20036;-54
2021/12/05 01:25:54;;;;;;;4.40;1.45;;;6.30;99.90;;;;;;5035611;28;20124;-52
2021/12/05 01:27:49;;;;;;;9.48;1.35;;;6.30;99.90;;;;;;5027547;28;20034;-56
2021/12/05 01:30:31;;;;;;;4.22;1.23;;;6.30;99.90;;;;;;5037071;28;20024;-53
2021/12/05 01:51:06;;;;;;;5.70;1.25;;;6.30;99.90;;;;;;5036927;28;20040;-56
2021/12/05 01:54:02;;;;;;;5.00;1.00;;;6.30;99.90;;;;;;5036326;28;20032;-52
2021/12/05 01:59:33;;;;;;;6.03;1.00;;;6.40;99.90;;;;;;5036587;28;20052;-53
2021/12/05 02:34:45;;;;;;;7.05;2.05;;;6.50;99.90;;;;;;5035557;28;20022;-56
2021/12/05 02:37:21;;;;;;;9.48;1.30;;;6.50;99.90;;;;;;5035385;28;20022;-53
2021/12/05 02:40:19;;;;;;;3.00;0.82;;;6.30;99.90;;;;;;5034313;28;20025;-51
2021/12/05 02:42:51;;;;;;;2.53;0.93;;;6.30;99.90;;;;;;5035202;28;20492;-49
2021/12/05 02:45:17;;;;;;;1.75;1.10;;;6.30;99.90;;;;;;5034180;28;20086;-54
2021/12/05 02:47:49;;;;;;;7.40;1.08;;;6.30;99.90;;;;;;5035544;28;20034;-53
2021/12/05 02:50:16;;;;;;;5.80;1.17;;;6.20;99.90;;;;;;5035166;28;20017;-52
2021/12/05 02:52:42;;;;;;;9.30;1.55;;;6.30;99.90;;;;;;5034593;28;20049;-52
2021/12/05 02:55:28;;;;;;;7.10;1.17;;;6.20;99.90;;;;;;5033925;28;20025;-51
2021/12/05 02:57:59;;;;;;;5.15;1.48;;;6.20;99.90;;;;;;5034772;28;20021;-52
2021/12/05 03:00:56;;;;;;;6.95;1.40;;;6.30;99.90;;;;;;5033894;28;20040;-49
2021/12/05 03:03:25;;;;;;;14.15;1.30;;;6.30;99.90;;;;;;5035262;28;20092;-54
2021/12/05 03:05:58;;;;;;;7.88;1.20;;;6.30;99.90;;;;;;5033784;28;20029;-53
2021/12/05 03:08:24;;;;;;;6.38;1.63;;;6.20;99.90;;;;;;5034525;28;20124;-52
2021/12/05 03:10:51;;;;;;;5.10;1.10;;;6.10;99.90;;;;;;5035215;28;20030;-52
2021/12/05 03:13:17;;;;;;;7.03;1.15;;;6.10;99.90;;;;;;5034765;28;20032;-54
2021/12/05 03:15:43;;;;;;;3.78;1.45;;;6.00;99.90;;;;;;5034756;28;20028;-54
2021/12/05 03:18:09;;;;;;;9.50;1.52;;;5.90;99.90;;;;;;5033813;28;20026;-52
2021/12/05 03:20:34;;;;;;;10.45;1.52;;;5.90;99.90;;;;;;5033565;28;20026;-51
2021/12/05 03:23:00;;;;;;;6.25;0.95;;;5.90;99.90;;;;;;5034657;28;20036;-55
2021/12/05 03:25:26;;;;;;;5.65;1.48;;;5.80;99.90;;;;;;5033444;28;20502;-51
2021/12/05 03:27:52;;;;;;;12.23;1.63;;;5.80;99.90;;;;;;5033240;28;20030;-52
2021/12/05 03:30:22;;;;;;;4.50;1.20;;;5.80;99.90;;;;;;5034541;28;20021;-52
2021/12/05 03:32:50;;;;;;;5.40;0.85;;;5.80;99.90;;;;;;5033372;28;20029;-52
2021/12/05 03:35:18;;;;;;;9.10;1.17;;;5.80;99.90;;;;;;5033408;28;20032;-53
2021/12/05 03:37:46;;;;;;;4.97;0.90;;;5.90;99.90;;;;;;5034368;28;20021;-49
2021/12/05 03:40:13;;;;;;;5.00;1.17;;;6.00;99.90;;;;;;5034186;28;20029;-51
2021/12/05 03:42:39;;;;;;;9.88;2.05;;;6.00;99.90;;;;;;5033000;28;20021;-53
2021/12/05 03:45:09;;;;;;;8.13;1.25;;;6.00;99.90;;;;;;5034239;28;20026;-49
2021/12/05 03:47:36;;;;;;;3.63;1.42;;;6.00;99.90;;;;;;5033382;28;20025;-49
2021/12/05 03:50:05;;;;;;;4.47;1.42;;;6.10;99.90;;;;;;5034399;28;20021;-49
2021/12/05 03:52:32;;;;;;;4.45;1.10;;;6.10;99.90;;;;;;5033996;28;20021;-49
2021/12/05 03:54:58;;;;;;;10.63;2.03;;;6.10;99.90;;;;;;5034288;28;20013;-51
2021/12/05 03:57:23;;;;;;;4.70;1.33;;;6.10;99.90;;;;;;5033964;28;20025;-51
2021/12/05 03:59:49;;;;;;;7.13;0.98;;;6.10;99.90;;;;;;5033295;28;20025;-51
2021/12/05 04:02:15;;;;;;;6.95;1.75;;;5.90;99.90;;;;;;5033831;28;20022;-52
2021/12/05 04:04:41;;;;;;;4.70;1.10;;;5.90;99.90;;;;;;5032833;28;20025;-50
2021/12/05 04:07:07;;;;;;;7.53;1.13;;;5.70;99.90;;;;;;5033853;28;20045;-49
2021/12/05 04:09:33;;;;;;;1.17;0.90;;;5.50;99.90;;;;;;5033813;28;20045;-50
2021/12/05 04:12:02;;;;;;;3.47;1.10;;;5.50;99.90;;;;;;5032514;28;20056;-51
2021/12/05 04:14:31;;;;;;;6.70;1.67;;;5.60;99.90;;;;;;5032679;28;20027;-51
2021/12/05 04:16:58;;;;;;;3.42;1.23;;;5.50;99.90;;;;;;5033954;28;20075;-52
2021/12/05 04:19:24;;;;;;;9.95;1.60;;;5.40;99.90;;;;;;5033681;28;20022;-49
2021/12/05 04:21:50;;;;;;;3.97;1.33;;;5.30;99.90;;;;;;5033598;28;20086;-50
2021/12/05 04:24:16;;;;;;;9.65;0.95;;;5.20;99.90;;;;;;5032164;28;20065;-52
2021/12/05 04:26:42;;;;;;;7.13;2.08;;;5.10;99.90;;;;;;5032275;28;20025;-50
2021/12/05 04:29:09;;;;;;;9.13;1.95;;;5.00;99.90;;;;;;5032463;28;20029;-50
2021/12/05 04:31:36;;;;;;;8.20;1.40;;;5.10;99.90;;;;;;5033753;28;20417;-49
2021/12/05 04:34:03;;;;;;;7.82;1.10;;;5.10;99.90;;;;;;5032041;28;20028;-49
2021/12/05 04:36:29;;;;;;;8.65;1.52;;;5.20;99.90;;;;;;5033356;28;20021;-49
2021/12/05 04:38:54;;;;;;;10.05;1.33;;;5.30;99.90;;;;;;5032116;28;20143;-51
2021/12/05 04:41:20;;;;;;;5.47;1.67;;;5.30;99.90;;;;;;5032128;28;20028;-53
2021/12/05 04:43:47;;;;;;;8.10;1.17;;;5.50;99.90;;;;;;5032616;28;20025;-51
2021/12/05 04:46:15;;;;;;;6.00;1.80;;;5.50;99.90;;;;;;5033521;28;20021;-51
2021/12/05 04:48:46;;;;;;;10.32;1.50;;;5.60;99.90;;;;;;5033221;28;20045;-50
2021/12/05 04:51:11;;;;;;;5.93;2.42;;;5.70;99.90;;;;;;5032774;28;20096;-50
2021/12/05 04:53:37;;;;;;;4.53;0.77;;;5.90;99.90;;;;;;5031877;28;20048;-52
2021/12/05 04:56:04;;;;;;;7.60;1.48;;;6.10;99.90;;;;;;5033155;28;20032;-55
2021/12/05 04:58:30;;;;;;;8.45;1.90;;;6.20;99.90;;;;;;5033153;28;20022;-49
2021/12/05 05:00:57;;;;;;;8.38;1.60;;;6.30;99.90;;;;;;5031900;28;20021;-51
2021/12/05 05:03:26;;;;;;;10.80;1.65;;;6.40;99.90;;;;;;5033086;28;20039;-51
2021/12/05 05:06:01;;;;;;;5.57;1.10;;;6.40;99.90;;;;;;5032708;28;20025;-53
2021/12/05 05:08:30;;;;;;;3.35;1.10;;;6.50;99.90;;;;;;5031954;28;20025;-52
2021/12/05 05:10:56;;;;;;;10.02;1.58;;;6.50;99.90;;;;;;5033105;28;20018;-52
2021/12/05 05:13:22;;;;;;;4.97;1.05;;;6.50;99.90;;;;;;5032017;28;20017;-55
2021/12/05 05:15:47;;;;;;;5.13;2.22;;;6.40;99.90;;;;;;5032083;28;20074;-54
2021/12/05 05:18:13;;;;;;;5.15;1.30;;;6.20;99.90;;;;;;5033524;28;20032;-51
2021/12/05 05:20:42;;;;;;;4.88;1.00;;;6.30;99.90;;;;;;5032101;28;20021;-51
2021/12/05 05:23:30;;;;;;;7.80;0.88;;;6.40;99.90;;;;;;5031707;28;20038;-52
2021/12/05 05:47:30;;;;;;;4.28;1.10;;;5.50;99.90;;;;;;5033232;28;20063;-53
2021/12/05 05:49:59;;;;;;;5.15;1.38;;;5.50;99.90;;;;;;5032359;28;20024;-54
2021/12/05 05:52:26;;;;;;;10.38;1.27;;;5.50;99.90;;;;;;5032629;28;20025;-52
2021/12/05 05:54:54;;;;;;;7.22;1.20;;;5.80;99.90;;;;;;5031383;28;20026;-55
2021/12/05 05:57:34;;;;;;;7.50;1.40;;;5.80;99.90;;;;;;5032744;28;20025;-53
2021/12/05 06:00:12;;;;;;;6.13;1.10;;;5.70;99.90;;;;;;5032618;28;20025;-50
2021/12/05 06:05:22;;;;;;;7.65;1.50;;;5.80;99.90;;;;;;5036438;28;20036;-49
2021/12/05 06:07:48;;;;;;;5.57;1.35;;;5.60;99.90;;;;;;5036041;28;20018;-51
2021/12/05 06:10:18;;;;;;;8.52;1.50;;;5.50;99.90;;;;;;5035608;28;20117;-50
2021/12/05 06:12:44;;;;;;;6.72;2.17;;;5.40;99.90;;;;;;5036258;28;20031;-51
2021/12/05 06:15:12;;;;;;;3.85;1.35;;;5.20;99.90;;;;;;5036229;28;20104;-50
2021/12/05 06:17:38;;;;;;;6.40;1.25;;;4.90;99.90;;;;;;5036146;28;20104;-50
2021/12/05 06:20:15;;;;;;;6.72;1.45;;;4.90;99.90;;;;;;5035914;28;20029;-49
2021/12/05 06:22:41;;;;;;;8.68;1.60;;;4.80;99.90;;;;;;5035136;28;20038;-50
2021/12/05 06:25:13;;;;;;;7.55;1.10;;;4.90;99.90;;;;;;5036066;28;20384;-49
2021/12/05 06:27:40;;;;;;;6.65;1.83;;;4.90;99.90;;;;;;5034406;28;20064;-51
2021/12/05 06:30:14;;;;;;;7.30;1.20;;;4.90;99.90;;;;;;5036005;28;20021;-51
2021/12/05 06:38:42;;;;;;;6.90;1.05;;;5.40;99.90;;;;;;5036167;28;20037;-49
2021/12/05 06:48:50;;;;;;;6.57;1.27;;;4.90;99.90;;;;;;5035575;28;20026;-49
2021/12/05 06:51:20;;;;;;;4.78;1.40;;;4.90;99.90;;;;;;5034047;28;20033;-52
2021/12/05 06:53:46;;;;;;;2.92;1.30;;;4.90;99.90;;;;;;5033952;28;20096;-49
2021/12/05 06:56:12;;;;;;;9.75;1.65;;;4.80;99.90;;;;;;5035237;28;20022;-55
2021/12/05 06:58:38;;;;;;;5.57;1.40;;;4.80;99.90;;;;;;5033868;28;20025;-54
2021/12/05 07:01:07;;;;;;;6.80;1.10;;;4.70;99.90;;;;;;5034684;28;20083;-52
2021/12/05 07:03:34;;;;;;;7.07;1.17;;;4.70;99.90;;;;;;5035045;28;20025;-51
2021/12/05 07:08:33;;;;;;;5.60;1.45;;;4.70;99.90;;;;;;5035165;28;20025;-50
2021/12/05 07:11:06;;;;;;;8.85;1.83;;;4.90;99.90;;;;;;5034916;28;20093;-50
2021/12/05 07:16:37;;;;;;;6.65;1.77;;;4.70;99.90;;;;;;5035374;28;20435;-49
2021/12/05 07:40:28;;;;;;;6.30;2.00;;;4.60;99.90;;;;;;5034750;28;20594;-51
2021/12/05 07:42:55;;;;;;;7.60;2.17;;;4.80;99.90;;;;;;5033886;28;20095;-52
2021/12/05 07:45:28;;;;;;;9.10;2.58;;;4.80;99.90;;;;;;5034294;28;20109;-50
2021/12/05 07:47:55;;;;;;;9.80;3.15;;;4.60;99.90;;;;;;5032826;28;20434;-49
2021/12/05 07:50:33;;;;;;;3.55;1.75;;;4.60;99.90;;;;;;5034229;28;20017;-49
2021/12/05 07:53:06;;;;;;;7.32;2.28;;;4.70;99.90;;;;;;5034335;28;20028;-51
2021/12/05 07:55:39;;;;;;;10.95;2.10;;;4.80;99.90;;;;;;5032813;28;20017;-51
2021/12/05 08:00:41;;;;;;;6.68;2.50;;;5.00;99.90;;;;;;5034154;28;20090;-49
2021/12/05 08:17:06;;;;;;;9.10;2.75;;;5.00;99.90;;;;;;4992525;28;20018;-50
2021/12/05 08:19:32;;;;;;;6.03;2.40;;;5.30;99.90;;;;;;5025713;28;20040;-55
2021/12/05 08:21:58;;;;;;;11.57;3.10;;;5.40;99.90;;;;;;5032602;28;20021;-51
2021/12/05 08:24:32;;;;;;;5.85;2.20;;;5.40;99.90;;;;;;5032651;28;20033;-49
2021/12/05 08:26:59;;;;;;;5.35;2.90;;;5.60;99.90;;;;;;5032931;28;20081;-52
2021/12/05 08:29:37;;;;;;;11.15;2.45;;;5.90;99.90;;;;;;5032555;28;20036;-48
2021/12/05 08:32:18;;;;;;;8.05;2.22;;;5.90;99.90;;;;;;5032636;28;20025;-52
2021/12/05 08:40:15;;;;;;;4.80;2.15;;;6.20;99.90;;;;;;5033561;28;20029;-55
2021/12/05 10:15:11;;;;;;;8.95;2.55;;;7.40;99.90;;;;;;5036199;28;20037;-50
2021/12/05 10:37:18;;;;;;;5.40;1.90;;;7.50;99.90;;;;;;5036155;28;20044;-50
2021/12/05 10:39:45;;;;;;;2.88;1.95;;;7.50;99.90;;;;;;5028886;28;20029;-51
2021/12/05 10:42:42;;;;;;;3.53;2.13;;;7.40;99.90;;;;;;5035615;28;20135;-52
2021/12/05 10:45:29;;;;;;;3.88;1.92;;;7.30;99.90;;;;;;5035506;28;20022;-53
2021/12/05 10:47:57;;;;;;;4.72;2.03;;;7.10;99.90;;;;;;5023789;28;20078;-55
2021/12/05 10:50:43;;;;;;;4.68;2.42;;;7.00;99.90;;;;;;5034244;28;20525;-52
2021/12/05 10:53:27;;;;;;;3.45;1.77;;;7.20;99.90;;;;;;5034506;28;20026;-50
2021/12/05 10:56:21;;;;;;;4.82;2.00;;;7.60;99.90;;;;;;5035257;28;20101;-52
2021/12/05 10:58:58;;;;;;;2.13;1.73;;;7.90;99.90;;;;;;5035232;28;20025;-53
2021/12/05 11:01:32;;;;;;;6.30;2.10;;;7.90;99.90;;;;;;5035126;28;20021;-55
2021/12/05 11:04:08;;;;;;;2.53;1.60;;;8.10;99.90;;;;;;5033808;28;20032;-56
2021/12/05 11:07:02;;;;;;;1.52;1.20;;;7.80;99.90;;;;;;5033789;28;20021;-56
2021/12/05 11:09:34;;;;;;;3.60;1.23;;;7.80;99.90;;;;;;5034965;28;20053;-51
2021/12/05 11:12:19;;;;;;;1.85;0.90;;;8.20;99.90;;;;;;5033639;28;20025;-56
2021/12/05 11:14:52;;;;;;;3.90;1.67;;;8.40;99.90;;;;;;5035089;28;20108;-53
2021/12/05 11:17:27;;;;;;;9.10;1.80;;;8.50;99.90;;;;;;5034923;28;20024;-53
2021/12/05 11:20:01;;;;;;;6.97;2.03;;;8.60;99.90;;;;;;5033478;28;20029;-56
2021/12/05 11:22:36;;;;;;;2.15;0.98;;;8.70;99.90;;;;;;5034501;28;20045;-51
2021/12/05 11:25:12;;;;;;;1.00;0.80;;;8.70;99.90;;;;;;5034788;28;20022;-51
2021/12/05 11:27:47;;;;;;;3.65;1.48;;;9.00;99.90;;;;;;5033770;28;20071;-55
2021/12/05 11:30:19;;;;;;;0.63;0.60;;;9.00;99.90;;;;;;5034220;28;20057;-51
2021/12/05 11:32:44;;;;;;;0.43;0.38;;;9.00;99.90;;;;;;5034669;28;20022;-55
2021/12/05 11:35:13;;;;;;;1.13;0.60;;;8.90;99.90;;;;;;5033052;28;20095;-54
2021/12/05 11:37:55;;;;;;;1.58;0.50;;;8.90;99.90;;;;;;5034351;28;20033;-50
2021/12/05 11:40:25;;;;;;;2.28;0.60;;;8.90;99.90;;;;;;5034442;28;20028;-52
2021/12/05 11:43:01;;;;;;;1.42;0.43;;;8.90;99.90;;;;;;5032893;28;20120;-52
2021/12/05 11:45:29;;;;;;;1.40;0.50;;;9.00;99.90;;;;;;5034250;28;20030;-53
2021/12/05 11:47:55;;;;;;;1.63;0.60;;;9.10;99.90;;;;;;5032787;28;20120;-51
2021/12/05 11:50:31;;;;;;;9.88;1.55;;;9.10;99.90;;;;;;5034064;28;20100;-53
2021/12/05 11:52:58;;;;;;;22.55;7.82;;;9.20;99.90;;;;;;5034171;28;20023;-54
2021/12/05 11:55:27;;;;;;;5.55;1.13;;;9.30;99.90;;;;;;5033820;28;20017;-54
2021/12/05 11:57:53;;;;;;;1.35;0.40;;;9.50;99.90;;;;;;5032250;28;20029;-55
2021/12/05 12:00:22;;;;;;;3.67;0.65;;;9.60;99.90;;;;;;5033493;28;20025;-55
2021/12/05 12:02:48;;;;;;;0.82;0.47;;;9.60;99.90;;;;;;5032849;28;20035;-51
2021/12/05 12:05:21;;;;;;;1.05;0.73;;;9.60;99.90;;;;;;5032929;28;20025;-54
2021/12/05 12:08:07;;;;;;;4.10;0.88;;;9.40;99.90;;;;;;5032291;28;20120;-51
2021/12/05 12:10:35;;;;;;;1.15;0.50;;;9.50;99.90;;;;;;5032356;28;20033;-51
2021/12/05 12:13:13;;;;;;;3.70;0.80;;;9.60;99.90;;;;;;5033734;28;20053;-55
2021/12/05 12:15:42;;;;;;;0.85;0.60;;;9.30;99.90;;;;;;5033297;28;20021;-57
2021/12/05 12:18:22;;;;;;;1.58;1.00;;;9.00;99.90;;;;;;5032790;28;20033;-57
2021/12/05 12:20:48;;;;;;;1.77;0.80;;;8.80;99.90;;;;;;5032529;28;20063;-51
2021/12/05 12:23:16;;;;;;;1.88;0.40;;;8.80;99.90;;;;;;5032863;28;20052;-53
2021/12/05 12:25:43;;;;;;;3.45;1.85;;;8.60;99.90;;;;;;5032607;28;20021;-52
2021/12/05 12:28:09;;;;;;;3.20;1.80;;;8.20;99.90;;;;;;5033517;28;20061;-54
2021/12/05 12:30:42;;;;;;;3.58;1.80;;;8.10;99.90;;;;;;5032269;28;20048;-53
2021/12/05 12:33:15;;;;;;;4.07;1.40;;;8.10;99.90;;;;;;5033516;28;20496;-56
2021/12/05 12:35:44;;;;;;;3.20;1.38;;;8.00;99.90;;;;;;5033473;28;20021;-54
2021/12/05 12:38:17;;;;;;;3.72;1.50;;;7.70;99.90;;;;;;5033410;28;20033;-50
2021/12/05 12:40:47;;;;;;;5.93;1.60;;;7.40;99.90;;;;;;5033784;28;20017;-54
2021/12/05 12:43:37;;;;;;;3.42;1.65;;;7.10;99.90;;;;;;5033301;28;20089;-54
2021/12/05 12:46:15;;;;;;;1.38;1.20;;;7.20;99.90;;;;;;5032384;28;20026;-54
2021/12/05 12:48:41;;;;;;;1.27;1.08;;;7.10;99.90;;;;;;5033511;28;20026;-55
2021/12/05 12:51:06;;;;;;;4.38;1.20;;;7.20;99.90;;;;;;5033345;28;20495;-50
2021/12/05 12:53:37;;;;;;;1.67;1.10;;;7.00;99.90;;;;;;5032044;28;20028;-51
2021/12/05 12:56:19;;;;;;;2.60;1.00;;;7.10;99.90;;;;;;5033281;28;20096;-52
2021/12/05 12:59:00;;;;;;;3.22;1.00;;;7.10;99.90;;;;;;5032090;28;20025;-52
2021/12/05 13:04:32;;;;;;;4.90;1.40;;;7.30;99.90;;;;;;5033645;28;20033;-53
2021/12/05 13:10:11;;;;;;;2.85;0.93;;;8.00;99.90;;;;;;5033865;28;20026;-55
2021/12/05 13:12:40;;;;;;;2.72;1.00;;;8.20;99.90;;;;;;5033855;28;20021;-53
2021/12/05 13:15:24;;;;;;;1.83;0.88;;;8.30;99.90;;;;;;5035825;28;20021;-54
2021/12/05 13:17:53;;;;;;;5.57;0.98;;;8.40;99.90;;;;;;5036108;28;20029;-56
2021/12/05 13:20:27;;;;;;;4.72;1.60;;;8.40;99.90;;;;;;5035634;28;20026;-55
2021/12/05 13:23:02;;;;;;;3.28;0.73;;;8.60;99.90;;;;;;5036044;28;20057;-52
2021/12/05 13:25:31;;;;;;;2.05;1.10;;;8.50;99.90;;;;;;5035687;28;20029;-53
2021/12/05 13:27:57;;;;;;;2.63;1.05;;;8.60;99.90;;;;;;5035670;28;20025;-51
2021/12/05 13:30:33;;;;;;;3.92;1.42;;;8.60;99.90;;;;;;5035518;28;20029;-54
2021/12/05 13:33:15;;;;;;;3.65;1.10;;;8.80;99.90;;;;;;5036959;28;20017;-54
2021/12/05 13:35:42;;;;;;;3.88;1.10;;;8.80;99.90;;;;;;5036402;28;20021;-57
2021/12/05 13:38:33;;;;;;;2.17;1.00;;;8.70;99.90;;;;;;5036583;28;20473;-52
2021/12/05 13:41:17;;;;;;;1.55;0.77;;;8.70;99.90;;;;;;5037001;28;20387;-54
2021/12/05 13:43:58;;;;;;;3.53;1.25;;;8.90;99.90;;;;;;5036815;28;20048;-52
2021/12/05 13:46:38;;;;;;;2.27;0.80;;;8.80;99.90;;;;;;5036676;28;20021;-55
2021/12/05 13:49:44;;;;;;;2.13;1.25;;;8.40;99.90;;;;;;5035164;28;20026;-57
2021/12/05 13:52:34;;;;;;;2.42;1.13;;;8.20;99.90;;;;;;4995236;28;20409;-55
2021/12/05 13:55:41;;;;;;;1.17;0.98;;;8.20;99.90;;;;;;4995120;28;20090;-54
2021/12/05 13:58:20;;;;;;;1.98;1.10;;;8.00;99.90;;;;;;5033155;28;20038;-52
2021/12/05 14:00:51;;;;;;;6.32;1.40;;;8.00;99.90;;;;;;5036585;28;20083;-55
2021/12/05 14:03:55;;;;;;;2.05;1.38;;;7.90;99.90;;;;;;5035111;28;20547;-52
2021/12/05 14:06:39;;;;;;;3.10;1.08;;;7.70;99.90;;;;;;5035195;28;20035;-51
2021/12/05 14:09:10;;;;;;;3.25;1.58;;;7.40;99.90;;;;;;5036178;28;20503;-52
2021/12/05 14:11:57;;;;;;;2.85;1.40;;;7.40;99.90;;;;;;5034907;28;20013;-52
2021/12/05 14:14:37;;;;;;;6.28;2.28;;;7.50;99.90;;;;;;5035639;28;20034;-53
2021/12/05 14:17:19;;;;;;;3.92;1.85;;;7.60;99.90;;;;;;5036403;28;20052;-55
2021/12/05 14:19:52;;;;;;;7.32;2.60;;;7.60;99.90;;;;;;5035917;28;20044;-53
2021/12/05 14:22:20;;;;;;;4.53;2.15;;;7.60;99.90;;;;;;5034662;28;20041;-56
2021/12/05 14:24:50;;;;;;;4.03;2.28;;;7.70;99.90;;;;;;5034546;28;20091;-52
2021/12/05 14:27:19;;;;;;;6.10;2.10;;;7.70;99.90;;;;;;5034646;28;20087;-54
2021/12/05 14:29:47;;;;;;;5.22;2.40;;;7.70;99.90;;;;;;5035427;28;20026;-52
2021/12/05 14:32:23;;;;;;;9.48;3.42;;;7.70;99.90;;;;;;5034892;28;20021;-54
2021/12/05 14:35:11;;;;;;;6.88;2.67;;;7.60;99.90;;;;;;5035969;28;20021;-54
2021/12/05 14:37:40;;;;;;;7.47;2.50;;;7.60;99.90;;;;;;5034359;28;20112;-51
2021/12/05 14:40:09;;;;;;;9.50;4.40;;;7.40;99.90;;;;;;5034307;28;20027;-51
2021/12/05 14:42:38;;;;;;;2.15;1.40;;;7.10;99.90;;;;;;5034245;28;20036;-49
2021/12/05 14:45:14;;;;;;;5.30;1.60;;;6.90;99.90;;;;;;5035480;28;20053;-51
2021/12/05 14:47:42;;;;;;;5.50;2.28;;;6.80;99.90;;;;;;5034163;28;20018;-51
2021/12/05 14:50:10;;;;;;;4.93;2.47;;;6.60;99.90;;;;;;5035705;28;20025;-51
2021/12/05 14:52:37;;;;;;;4.93;1.95;;;6.60;99.90;;;;;;5033967;28;20072;-50
2021/12/05 14:55:11;;;;;;;4.25;2.03;;;6.70;99.90;;;;;;5035299;28;20072;-50
2021/12/05 14:57:43;;;;;;;3.53;2.67;;;6.70;99.90;;;;;;5034026;28;20546;-50
2021/12/05 15:00:21;;;;;;;8.05;3.08;;;6.60;99.90;;;;;;5035217;28;20026;-54
2021/12/05 15:02:47;;;;;;;9.82;2.97;;;6.60;99.90;;;;;;5035200;28;20024;-51
2021/12/05 15:05:15;;;;;;;4.50;2.28;;;6.40;99.90;;;;;;5035013;28;20026;-50
2021/12/05 15:07:42;;;;;;;5.80;2.50;;;6.30;99.90;;;;;;5033726;28;20084;-50
2021/12/05 15:10:08;;;;;;;6.15;2.42;;;6.20;99.90;;;;;;5034566;28;20026;-53
2021/12/05 15:12:35;;;;;;;6.07;2.70;;;6.20;99.90;;;;;;5033648;28;20021;-55
2021/12/05 15:15:09;;;;;;;7.78;2.85;;;6.20;99.90;;;;;;5034885;28;20025;-53
2021/12/05 15:17:37;;;;;;;5.85;2.13;;;6.10;99.90;;;;;;5034134;28;20083;-52
2021/12/05 15:20:10;;;;;;;9.60;2.83;;;6.10;99.90;;;;;;5034829;28;20029;-54
2021/12/05 15:22:36;;;;;;;3.53;2.25;;;6.00;99.90;;;;;;5035038;28;20029;-51
2021/12/05 15:25:06;;;;;;;7.72;2.85;;;6.00;99.90;;;;;;5034733;28;20013;-53
2021/12/05 15:27:33;;;;;;;10.80;2.90;;;6.00;99.90;;;;;;5033608;28;20483;-54
2021/12/05 15:30:06;;;;;;;6.65;3.40;;;6.10;99.90;;;;;;5033364;28;20082;-52
2021/12/05 15:32:33;;;;;;;2.75;2.05;;;6.10;99.90;;;;;;5034514;28;20032;-54
2021/12/05 15:35:02;;;;;;;7.05;2.72;;;6.10;99.90;;;;;;5032972;28;20032;-49
2021/12/05 15:37:29;;;;;;;8.48;3.05;;;6.00;99.90;;;;;;5033234;28;20022;-50
2021/12/05 15:39:56;;;;;;;7.75;3.42;;;6.10;99.90;;;;;;5034701;28;20100;-52
2021/12/05 15:42:28;;;;;;;5.32;2.70;;;6.10;99.90;;;;;;5034351;28;20067;-54
2021/12/05 15:44:57;;;;;;;7.10;3.15;;;6.10;99.90;;;;;;5034368;28;20026;-52
2021/12/05 15:47:26;;;;;;;12.55;4.20;;;6.10;99.90;;;;;;5034285;28;20021;-50
2021/12/05 15:50:24;;;;;;;8.70;3.47;;;6.10;99.90;;;;;;5034228;28;20108;-49
2021/12/05 15:52:58;;;;;;;9.52;3.42;;;6.10;99.90;;;;;;5020287;28;20037;-50
2021/12/05 15:55:39;;;;;;;11.82;4.30;;;6.20;99.90;;;;;;5034096;28;20056;-54
2021/12/05 15:58:09;;;;;;;10.63;3.92;;;6.20;99.90;;;;;;5032928;28;20112;-56
2021/12/05 16:00:43;;;;;;;8.13;3.90;;;6.20;99.90;;;;;;5033020;28;20021;-52
2021/12/05 16:03:11;;;;;;;12.88;4.68;;;6.10;99.90;;;;;;5032872;28;20079;-55
2021/12/05 16:05:39;;;;;;;7.25;2.85;;;6.10;99.90;;;;;;5034045;28;20028;-52
2021/12/05 16:08:07;;;;;;;10.65;3.90;;;6.10;99.90;;;;;;5033915;28;20033;-51
2021/12/05 16:10:35;;;;;;;7.57;3.35;;;6.10;99.90;;;;;;5034185;28;20022;-53
2021/12/05 16:13:28;;;;;;;9.60;4.07;;;6.10;99.90;;;;;;5033721;28;20033;-52
2021/12/05 16:16:05;;;;;;;6.95;3.15;;;6.10;99.90;;;;;;5033613;28;20033;-54
2021/12/05 16:18:33;;;;;;;6.53;3.20;;;6.20;99.90;;;;;;5032779;28;20037;-50
2021/12/05 16:21:05;;;;;;;11.13;3.92;;;6.20;99.90;;;;;;5033631;28;20033;-54
2021/12/05 16:23:39;;;;;;;6.95;3.22;;;6.20;99.90;;;;;;5034010;28;20036;-53
2021/12/05 16:26:09;;;;;;;11.60;4.07;;;6.20;99.90;;;;;;5033970;28;20033;-53
2021/12/05 16:28:53;;;;;;;19.63;7.57;;;6.30;99.90;;;;;;5032253;28;20052;-50
2021/12/05 16:31:24;;;;;;;18.30;5.90;;;6.40;99.90;;;;;;5033592;28;20380;-53
2021/12/05 16:33:52;;;;;;;6.57;3.25;;;6.40;99.90;;;;;;5033499;28;20033;-51
2021/12/05 16:36:19;;;;;;;9.13;3.10;;;6.50;99.90;;;;;;5033814;28;20026;-54
2021/12/05 16:38:47;;;;;;;9.52;3.10;;;6.60;99.90;;;;;;5033713;28;20017;-55
2021/12/05 16:41:20;;;;;;;10.80;3.55;;;6.50;99.90;;;;;;5033525;28;20060;-52
2021/12/05 16:43:53;;;;;;;12.25;5.57;;;6.60;99.90;;;;;;5032119;28;20117;-52
2021/12/05 16:46:32;;;;;;;8.98;4.15;;;6.50;99.90;;;;;;5031435;28;20084;-54
2021/12/05 16:49:00;;;;;;;9.63;3.63;;;6.40;99.90;;;;;;5031939;28;20083;-52
2021/12/05 16:51:36;;;;;;;9.00;3.63;;;6.30;99.90;;;;;;5032349;28;20025;-53
2021/12/05 16:54:17;;;;;;;24.52;8.95;;;6.30;99.90;;;;;;5033405;28;20148;-50
2021/12/05 16:57:05;;;;;;;21.00;8.13;;;6.30;99.90;;;;;;5032937;28;20022;-53
2021/12/05 16:59:41;;;;;;;16.00;7.35;;;6.20;99.90;;;;;;5031768;28;20555;-54
2021/12/05 17:02:20;;;;;;;13.95;6.80;;;6.10;99.90;;;;;;5031885;28;20079;-53
2021/12/05 17:04:58;;;;;;;13.00;6.13;;;6.10;99.90;;;;;;5031923;28;20029;-50
2021/12/05 17:07:55;;;;;;;12.65;6.00;;;6.10;99.90;;;;;;5033308;28;20021;-53
2021/12/05 17:10:20;;;;;;;18.70;6.47;;;6.10;99.90;;;;;;5031912;28;20022;-52
2021/12/05 17:12:48;;;;;;;12.20;5.50;;;6.10;99.90;;;;;;5032315;28;20105;-51
2021/12/05 17:15:28;;;;;;;8.27;3.70;;;6.10;99.90;;;;;;5033070;28;20032;-50
2021/12/05 17:18:02;;;;;;;10.45;4.10;;;6.00;99.90;;;;;;5033294;28;20080;-56
2021/12/05 17:20:37;;;;;;;10.40;4.25;;;6.00;99.90;;;;;;5031828;28;20030;-51
2021/12/05 17:23:10;;;;;;;9.48;4.82;;;5.90;99.90;;;;;;5031556;28;20033;-50
2021/12/05 17:25:49;;;;;;;11.77;4.53;;;5.90;99.90;;;;;;5032977;28;20029;-53
2021/12/05 17:28:32;;;;;;;10.68;4.60;;;5.90;99.90;;;;;;5033053;28;20076;-51
2021/12/05 17:31:01;;;;;;;8.80;4.47;;;6.00;99.90;;;;;;5031713;28;20048;-52
2021/12/05 17:33:40;;;;;;;26.20;9.52;;;5.90;99.90;;;;;;5032122;28;20057;-54
2021/12/05 17:36:12;;;;;;;18.85;6.43;;;5.90;99.90;;;;;;5032239;28;20044;-49
2021/12/05 17:38:37;;;;;;;;;;;5.90;99.90;;;;;;5032011;28;20083;-55
2021/12/05 17:41:03;;;;;;;10.50;5.10;;;5.80;99.90;;;;;;5031934;28;19905;-51
2021/12/05 17:43:28;;;;;;;15.75;7.68;;;5.90;99.90;;;;;;5033105;28;20187;-53
2021/12/05 17:45:54;;;;;;;14.90;7.57;;;5.90;99.90;;;;;;5032781;28;20113;-50
2021/12/05 17:48:20;;;;;;;16.63;7.18;;;5.90;99.90;;;;;;5031786;28;20053;-54
2021/12/05 17:50:48;;;;;;;11.75;6.13;;;5.80;99.90;;;;;;5032931;28;20025;-51
2021/12/05 17:53:14;;;;;;;11.73;5.30;;;5.80;99.90;;;;;;5031652;28;20376;-54
2021/12/05 17:55:45;;;;;;;10.85;5.35;;;5.80;99.90;;;;;;5031409;28;20026;-51
2021/12/05 18:03:51;;;;;;;6.10;4.57;;;5.70;99.90;;;;;;5025401;28;19967;-51
2021/12/05 18:06:18;;;;;;;9.52;4.18;;;5.70;99.90;;;;;;5036517;28;20040;-52
2021/12/05 18:08:44;;;;;;;8.63;4.05;;;5.70;99.90;;;;;;5034874;28;20025;-55
2021/12/05 18:11:15;;;;;;;13.20;5.47;;;5.70;99.90;;;;;;5036443;28;20138;-51
2021/12/05 18:13:41;;;;;;;11.10;5.30;;;5.70;99.90;;;;;;5034826;28;20111;-53
2021/12/05 18:16:14;;;;;;;11.02;4.43;;;5.70;99.90;;;;;;5036318;28;20095;-52
2021/12/05 18:18:41;;;;;;;10.88;4.55;;;5.80;99.90;;;;;;5035069;28;20025;-53
2021/12/05 18:21:08;;;;;;;9.35;5.32;;;5.80;99.90;;;;;;5034718;28;20026;-53
2021/12/05 18:23:36;;;;;;;9.48;5.15;;;5.90;99.90;;;;;;5036028;28;20112;-53
2021/12/05 18:26:03;;;;;;;11.18;5.13;;;5.90;99.90;;;;;;5035833;28;20033;-55
2021/12/05 18:28:30;;;;;;;12.20;5.38;;;6.00;99.90;;;;;;5034481;28;20036;-53
2021/12/05 18:30:57;;;;;;;11.82;6.20;;;6.00;99.90;;;;;;5036433;28;20024;-53
2021/12/05 18:33:25;;;;;;;12.23;5.47;;;6.10;99.90;;;;;;5035676;28;20030;-54
2021/12/05 18:35:51;;;;;;;10.65;6.03;;;6.20;99.90;;;;;;5035666;28;20024;-54